sensor_id;sensor_type;location;lat;lon;timestamp;P1;durP1;ratioP1;P2;durP2;ratioP2
48181;SDS011;33976;47.436;18.876;2023-02-18T00:01:39;1.20;;;1.08;;
48181;SDS011;33976;47.436;18.876;2023-02-18T00:04:08;0.82;;;0.82;;
48181;SDS011;33976;47.436;18.876;2023-02-18T00:06:36;0.82;;;0.82;;
48181;SDS011;33976;47.436;18.876;2023-02-18T00:09:05;0.50;;;0.50;;
48181;SDS011;33976;47.436;18.876;2023-02-18T00:11:36;0.68;;;0.68;;
48181;SDS011;33976;47.436;18.876;2023-02-18T00:14:07;0.75;;;0.75;;
48181;SDS011;33976;47.436;18.876;2023-02-18T00:16:40;0.80;;;0.80;;
48181;SDS011;33976;47.436;18.876;2023-02-18T00:19:12;0.70;;;0.70;;
48181;SDS011;33976;47.436;18.876;2023-02-18T00:21:42;0.85;;;0.85;;
48181;SDS011;33976;47.436;18.876;2023-02-18T00:24:12;1.50;;;1.40;;
48181;SDS011;33976;47.436;18.876;2023-02-18T00:26:44;2.53;;;2.33;;
48181;SDS011;33976;47.436;18.876;2023-02-18T00:29:12;0.70;;;0.70;;
48181;SDS011;33976;47.436;18.876;2023-02-18T00:31:41;0.73;;;0.73;;
48181;SDS011;33976;47.436;18.876;2023-02-18T00:34:10;0.60;;;0.60;;
48181;SDS011;33976;47.436;18.876;2023-02-18T00:36:39;0.93;;;0.88;;
48181;SDS011;33976;47.436;18.876;2023-02-18T00:39:08;1.00;;;0.95;;
48181;SDS011;33976;47.436;18.876;2023-02-18T00:41:38;1.83;;;1.67;;
48181;SDS011;33976;47.436;18.876;2023-02-18T00:44:06;0.62;;;0.62;;
48181;SDS011;33976;47.436;18.876;2023-02-18T00:46:34;0.30;;;0.30;;
48181;SDS011;33976;47.436;18.876;2023-02-18T00:49:04;1.08;;;1.08;;
48181;SDS011;33976;47.436;18.876;2023-02-18T00:51:34;0.75;;;0.75;;
48181;SDS011;33976;47.436;18.876;2023-02-18T00:54:02;0.60;;;0.60;;
48181;SDS011;33976;47.436;18.876;2023-02-18T00:56:30;0.35;;;0.35;;
48181;SDS011;33976;47.436;18.876;2023-02-18T00:58:59;1.05;;;0.98;;
48181;SDS011;33976;47.436;18.876;2023-02-18T01:01:27;0.40;;;0.40;;
48181;SDS011;33976;47.436;18.876;2023-02-18T01:03:55;0.70;;;0.70;;
48181;SDS011;33976;47.436;18.876;2023-02-18T01:06:23;0.50;;;0.50;;
48181;SDS011;33976;47.436;18.876;2023-02-18T01:08:51;0.88;;;0.85;;
48181;SDS011;33976;47.436;18.876;2023-02-18T01:11:20;0.68;;;0.68;;
48181;SDS011;33976;47.436;18.876;2023-02-18T01:13:50;0.75;;;0.75;;
48181;SDS011;33976;47.436;18.876;2023-02-18T01:16:18;0.30;;;0.30;;
48181;SDS011;33976;47.436;18.876;2023-02-18T01:18:47;1.30;;;0.75;;
48181;SDS011;33976;47.436;18.876;2023-02-18T01:21:15;0.68;;;0.68;;
48181;SDS011;33976;47.436;18.876;2023-02-18T01:23:43;0.50;;;0.50;;
48181;SDS011;33976;47.436;18.876;2023-02-18T01:26:15;0.60;;;0.60;;
48181;SDS011;33976;47.436;18.876;2023-02-18T01:28:42;0.73;;;0.73;;
48181;SDS011;33976;47.436;18.876;2023-02-18T01:31:11;2.95;;;1.67;;
48181;SDS011;33976;47.436;18.876;2023-02-18T01:33:41;1.70;;;1.27;;
48181;SDS011;33976;47.436;18.876;2023-02-18T01:36:11;0.37;;;0.37;;
48181;SDS011;33976;47.436;18.876;2023-02-18T01:38:39;0.98;;;0.98;;
48181;SDS011;33976;47.436;18.876;2023-02-18T01:41:08;0.62;;;0.60;;
48181;SDS011;33976;47.436;18.876;2023-02-18T01:43:36;0.75;;;0.75;;
48181;SDS011;33976;47.436;18.876;2023-02-18T01:48:59;0.68;;;0.68;;
48181;SDS011;33976;47.436;18.876;2023-02-18T01:51:29;0.30;;;0.30;;
48181;SDS011;33976;47.436;18.876;2023-02-18T01:54:08;0.32;;;0.32;;
48181;SDS011;33976;47.436;18.876;2023-02-18T01:56:40;0.60;;;0.60;;
48181;SDS011;33976;47.436;18.876;2023-02-18T01:59:20;0.50;;;0.50;;
48181;SDS011;33976;47.436;18.876;2023-02-18T02:01:51;0.40;;;0.40;;
48181;SDS011;33976;47.436;18.876;2023-02-18T02:04:20;0.40;;;0.40;;
48181;SDS011;33976;47.436;18.876;2023-02-18T02:06:48;0.43;;;0.43;;
48181;SDS011;33976;47.436;18.876;2023-02-18T02:09:17;0.30;;;0.30;;
48181;SDS011;33976;47.436;18.876;2023-02-18T02:17:10;0.50;;;0.50;;
48181;SDS011;33976;47.436;18.876;2023-02-18T02:19:54;0.20;;;0.20;;
48181;SDS011;33976;47.436;18.876;2023-02-18T02:31:13;0.30;;;0.30;;
48181;SDS011;33976;47.436;18.876;2023-02-18T02:37:12;0.50;;;0.50;;
48181;SDS011;33976;47.436;18.876;2023-02-18T02:40:04;0.68;;;0.68;;
48181;SDS011;33976;47.436;18.876;2023-02-18T02:42:57;0.30;;;0.30;;
48181;SDS011;33976;47.436;18.876;2023-02-18T02:53:28;0.30;;;0.30;;
48181;SDS011;33976;47.436;18.876;2023-02-18T02:55:58;0.30;;;0.30;;
48181;SDS011;33976;47.436;18.876;2023-02-18T02:58:28;0.55;;;0.55;;
48181;SDS011;33976;47.436;18.876;2023-02-18T03:01:14;0.30;;;0.30;;
48181;SDS011;33976;47.436;18.876;2023-02-18T03:19:44;0.30;;;0.30;;
48181;SDS011;33976;47.436;18.876;2023-02-18T03:22:22;0.30;;;0.30;;
48181;SDS011;33976;47.436;18.876;2023-02-18T03:24:56;0.40;;;0.40;;
48181;SDS011;33976;47.436;18.876;2023-02-18T03:30:05;0.30;;;0.30;;
48181;SDS011;33976;47.436;18.876;2023-02-18T03:32:37;1.27;;;0.93;;
48181;SDS011;33976;47.436;18.876;2023-02-18T03:35:13;0.30;;;0.30;;
48181;SDS011;33976;47.436;18.876;2023-02-18T03:37:49;0.22;;;0.22;;
48181;SDS011;33976;47.436;18.876;2023-02-18T03:40:21;0.22;;;0.22;;
48181;SDS011;33976;47.436;18.876;2023-02-18T03:42:50;0.30;;;0.30;;
48181;SDS011;33976;47.436;18.876;2023-02-18T03:45:18;0.68;;;0.68;;
48181;SDS011;33976;47.436;18.876;2023-02-18T03:47:46;0.30;;;0.30;;
48181;SDS011;33976;47.436;18.876;2023-02-18T03:50:15;0.47;;;0.47;;
48181;SDS011;33976;47.436;18.876;2023-02-18T03:52:43;0.40;;;0.40;;
48181;SDS011;33976;47.436;18.876;2023-02-18T03:55:11;0.40;;;0.40;;
48181;SDS011;33976;47.436;18.876;2023-02-18T03:57:39;0.50;;;0.50;;
48181;SDS011;33976;47.436;18.876;2023-02-18T04:00:07;0.40;;;0.40;;
48181;SDS011;33976;47.436;18.876;2023-02-18T04:02:39;0.30;;;0.30;;
48181;SDS011;33976;47.436;18.876;2023-02-18T04:05:08;1.27;;;0.85;;
48181;SDS011;33976;47.436;18.876;2023-02-18T04:07:36;0.20;;;0.20;;
48181;SDS011;33976;47.436;18.876;2023-02-18T04:10:05;0.50;;;0.50;;
48181;SDS011;33976;47.436;18.876;2023-02-18T04:12:35;0.30;;;0.30;;
48181;SDS011;33976;47.436;18.876;2023-02-18T04:15:03;0.32;;;0.32;;
48181;SDS011;33976;47.436;18.876;2023-02-18T04:17:31;0.30;;;0.30;;
48181;SDS011;33976;47.436;18.876;2023-02-18T04:20:00;0.30;;;0.30;;
48181;SDS011;33976;47.436;18.876;2023-02-18T04:22:31;0.47;;;0.47;;
48181;SDS011;33976;47.436;18.876;2023-02-18T04:24:59;1.50;;;1.40;;
48181;SDS011;33976;47.436;18.876;2023-02-18T04:27:29;0.50;;;0.50;;
48181;SDS011;33976;47.436;18.876;2023-02-18T04:29:57;0.37;;;0.37;;
48181;SDS011;33976;47.436;18.876;2023-02-18T04:32:25;0.37;;;0.37;;
48181;SDS011;33976;47.436;18.876;2023-02-18T04:34:53;0.30;;;0.30;;
48181;SDS011;33976;47.436;18.876;2023-02-18T04:37:21;0.30;;;0.30;;
48181;SDS011;33976;47.436;18.876;2023-02-18T04:39:49;0.82;;;0.82;;
48181;SDS011;33976;47.436;18.876;2023-02-18T04:42:18;0.40;;;0.40;;
48181;SDS011;33976;47.436;18.876;2023-02-18T04:44:46;0.73;;;0.73;;
48181;SDS011;33976;47.436;18.876;2023-02-18T04:47:14;0.43;;;0.43;;
48181;SDS011;33976;47.436;18.876;2023-02-18T04:49:42;0.98;;;0.98;;
48181;SDS011;33976;47.436;18.876;2023-02-18T04:52:10;3.95;;;1.42;;
48181;SDS011;33976;47.436;18.876;2023-02-18T04:54:38;0.30;;;0.30;;
48181;SDS011;33976;47.436;18.876;2023-02-18T04:57:06;0.52;;;0.52;;
48181;SDS011;33976;47.436;18.876;2023-02-18T04:59:34;0.50;;;0.50;;
48181;SDS011;33976;47.436;18.876;2023-02-18T05:02:03;0.65;;;0.65;;
48181;SDS011;33976;47.436;18.876;2023-02-18T05:04:31;4.95;;;1.95;;
48181;SDS011;33976;47.436;18.876;2023-02-18T05:07:00;0.50;;;0.50;;
48181;SDS011;33976;47.436;18.876;2023-02-18T05:09:28;1.20;;;0.70;;
48181;SDS011;33976;47.436;18.876;2023-02-18T05:11:56;0.40;;;0.40;;
48181;SDS011;33976;47.436;18.876;2023-02-18T05:14:24;0.40;;;0.40;;
48181;SDS011;33976;47.436;18.876;2023-02-18T05:16:52;0.60;;;0.60;;
48181;SDS011;33976;47.436;18.876;2023-02-18T05:19:21;0.70;;;0.70;;
48181;SDS011;33976;47.436;18.876;2023-02-18T05:21:49;0.40;;;0.40;;
48181;SDS011;33976;47.436;18.876;2023-02-18T05:24:17;1.20;;;1.10;;
48181;SDS011;33976;47.436;18.876;2023-02-18T05:26:45;0.60;;;0.60;;
48181;SDS011;33976;47.436;18.876;2023-02-18T05:29:13;0.50;;;0.50;;
48181;SDS011;33976;47.436;18.876;2023-02-18T05:31:41;0.40;;;0.40;;
48181;SDS011;33976;47.436;18.876;2023-02-18T05:34:10;1.40;;;1.02;;
48181;SDS011;33976;47.436;18.876;2023-02-18T05:36:38;0.55;;;0.55;;
48181;SDS011;33976;47.436;18.876;2023-02-18T05:39:06;1.75;;;1.10;;
48181;SDS011;33976;47.436;18.876;2023-02-18T05:41:34;0.40;;;0.40;;
48181;SDS011;33976;47.436;18.876;2023-02-18T05:44:02;0.43;;;0.43;;
48181;SDS011;33976;47.436;18.876;2023-02-18T05:46:49;0.40;;;0.40;;
48181;SDS011;33976;47.436;18.876;2023-02-18T05:49:17;0.43;;;0.43;;
48181;SDS011;33976;47.436;18.876;2023-02-18T05:51:45;0.47;;;0.47;;
48181;SDS011;33976;47.436;18.876;2023-02-18T05:54:13;0.43;;;0.43;;
48181;SDS011;33976;47.436;18.876;2023-02-18T05:56:42;0.30;;;0.30;;
48181;SDS011;33976;47.436;18.876;2023-02-18T05:59:10;0.68;;;0.68;;
48181;SDS011;33976;47.436;18.876;2023-02-18T06:01:38;0.50;;;0.50;;
48181;SDS011;33976;47.436;18.876;2023-02-18T06:04:07;0.40;;;0.40;;
48181;SDS011;33976;47.436;18.876;2023-02-18T06:06:35;0.30;;;0.30;;
48181;SDS011;33976;47.436;18.876;2023-02-18T06:09:03;0.40;;;0.40;;
48181;SDS011;33976;47.436;18.876;2023-02-18T06:11:32;0.45;;;0.45;;
48181;SDS011;33976;47.436;18.876;2023-02-18T06:14:00;0.43;;;0.43;;
48181;SDS011;33976;47.436;18.876;2023-02-18T06:16:28;0.50;;;0.50;;
48181;SDS011;33976;47.436;18.876;2023-02-18T06:18:57;0.40;;;0.40;;
48181;SDS011;33976;47.436;18.876;2023-02-18T06:21:25;1.35;;;1.25;;
48181;SDS011;33976;47.436;18.876;2023-02-18T06:23:53;1.05;;;0.95;;
48181;SDS011;33976;47.436;18.876;2023-02-18T06:26:22;0.37;;;0.37;;
48181;SDS011;33976;47.436;18.876;2023-02-18T06:28:50;0.32;;;0.32;;
48181;SDS011;33976;47.436;18.876;2023-02-18T06:31:18;0.30;;;0.30;;
48181;SDS011;33976;47.436;18.876;2023-02-18T06:33:46;0.30;;;0.30;;
48181;SDS011;33976;47.436;18.876;2023-02-18T06:36:14;0.32;;;0.32;;
48181;SDS011;33976;47.436;18.876;2023-02-18T06:38:44;0.30;;;0.30;;
48181;SDS011;33976;47.436;18.876;2023-02-18T06:41:13;0.55;;;0.55;;
48181;SDS011;33976;47.436;18.876;2023-02-18T06:43:41;0.35;;;0.35;;
48181;SDS011;33976;47.436;18.876;2023-02-18T06:46:09;0.30;;;0.30;;
48181;SDS011;33976;47.436;18.876;2023-02-18T06:48:38;0.40;;;0.40;;
48181;SDS011;33976;47.436;18.876;2023-02-18T06:51:06;0.50;;;0.50;;
48181;SDS011;33976;47.436;18.876;2023-02-18T06:53:34;0.40;;;0.40;;
48181;SDS011;33976;47.436;18.876;2023-02-18T06:56:02;0.55;;;0.55;;
48181;SDS011;33976;47.436;18.876;2023-02-18T06:58:30;0.40;;;0.40;;
48181;SDS011;33976;47.436;18.876;2023-02-18T07:00:59;0.50;;;0.50;;
48181;SDS011;33976;47.436;18.876;2023-02-18T07:03:27;0.75;;;0.75;;
48181;SDS011;33976;47.436;18.876;2023-02-18T07:05:56;0.40;;;0.40;;
48181;SDS011;33976;47.436;18.876;2023-02-18T07:08:24;0.40;;;0.40;;
48181;SDS011;33976;47.436;18.876;2023-02-18T07:10:52;0.30;;;0.30;;
48181;SDS011;33976;47.436;18.876;2023-02-18T07:13:20;0.40;;;0.40;;
48181;SDS011;33976;47.436;18.876;2023-02-18T07:15:48;0.40;;;0.40;;
48181;SDS011;33976;47.436;18.876;2023-02-18T07:18:16;0.50;;;0.50;;
48181;SDS011;33976;47.436;18.876;2023-02-18T07:20:44;0.68;;;0.68;;
48181;SDS011;33976;47.436;18.876;2023-02-18T07:23:13;2.05;;;1.48;;
48181;SDS011;33976;47.436;18.876;2023-02-18T07:25:41;0.73;;;0.73;;
48181;SDS011;33976;47.436;18.876;2023-02-18T07:28:09;0.50;;;0.50;;
48181;SDS011;33976;47.436;18.876;2023-02-18T07:30:37;0.57;;;0.57;;
48181;SDS011;33976;47.436;18.876;2023-02-18T07:33:05;0.40;;;0.40;;
48181;SDS011;33976;47.436;18.876;2023-02-18T07:35:34;0.60;;;0.60;;
48181;SDS011;33976;47.436;18.876;2023-02-18T07:38:02;0.50;;;0.50;;
48181;SDS011;33976;47.436;18.876;2023-02-18T07:40:30;0.50;;;0.50;;
48181;SDS011;33976;47.436;18.876;2023-02-18T07:42:58;0.52;;;0.52;;
48181;SDS011;33976;47.436;18.876;2023-02-18T07:45:26;0.85;;;0.85;;
48181;SDS011;33976;47.436;18.876;2023-02-18T07:47:54;0.40;;;0.40;;
48181;SDS011;33976;47.436;18.876;2023-02-18T07:50:22;0.43;;;0.43;;
48181;SDS011;33976;47.436;18.876;2023-02-18T07:52:50;0.40;;;0.40;;
48181;SDS011;33976;47.436;18.876;2023-02-18T07:55:19;0.40;;;0.40;;
48181;SDS011;33976;47.436;18.876;2023-02-18T07:57:47;0.50;;;0.50;;
48181;SDS011;33976;47.436;18.876;2023-02-18T08:00:24;0.40;;;0.40;;
48181;SDS011;33976;47.436;18.876;2023-02-18T08:02:53;0.50;;;0.50;;
48181;SDS011;33976;47.436;18.876;2023-02-18T08:05:21;0.32;;;0.32;;
48181;SDS011;33976;47.436;18.876;2023-02-18T08:07:49;0.30;;;0.30;;
48181;SDS011;33976;47.436;18.876;2023-02-18T08:10:17;0.30;;;0.30;;
48181;SDS011;33976;47.436;18.876;2023-02-18T08:12:45;1.08;;;1.05;;
48181;SDS011;33976;47.436;18.876;2023-02-18T08:15:13;0.30;;;0.30;;
48181;SDS011;33976;47.436;18.876;2023-02-18T08:17:41;0.37;;;0.37;;
48181;SDS011;33976;47.436;18.876;2023-02-18T08:20:10;0.85;;;0.85;;
48181;SDS011;33976;47.436;18.876;2023-02-18T08:22:38;0.35;;;0.35;;
48181;SDS011;33976;47.436;18.876;2023-02-18T08:25:06;0.60;;;0.60;;
48181;SDS011;33976;47.436;18.876;2023-02-18T08:27:44;0.30;;;0.30;;
48181;SDS011;33976;47.436;18.876;2023-02-18T08:30:13;0.30;;;0.30;;
48181;SDS011;33976;47.436;18.876;2023-02-18T08:32:41;0.30;;;0.30;;
48181;SDS011;33976;47.436;18.876;2023-02-18T08:35:09;1.77;;;0.93;;
48181;SDS011;33976;47.436;18.876;2023-02-18T08:37:39;0.40;;;0.40;;
48181;SDS011;33976;47.436;18.876;2023-02-18T08:40:20;0.30;;;0.30;;
48181;SDS011;33976;47.436;18.876;2023-02-18T08:42:49;0.30;;;0.30;;
48181;SDS011;33976;47.436;18.876;2023-02-18T08:45:19;0.37;;;0.37;;
48181;SDS011;33976;47.436;18.876;2023-02-18T08:47:47;0.30;;;0.30;;
48181;SDS011;33976;47.436;18.876;2023-02-18T08:50:36;0.30;;;0.30;;
48181;SDS011;33976;47.436;18.876;2023-02-18T08:53:04;3.03;;;2.05;;
48181;SDS011;33976;47.436;18.876;2023-02-18T08:55:32;4.43;;;4.05;;
48181;SDS011;33976;47.436;18.876;2023-02-18T08:58:02;2.47;;;2.28;;
48181;SDS011;33976;47.436;18.876;2023-02-18T09:00:32;1.27;;;0.60;;
48181;SDS011;33976;47.436;18.876;2023-02-18T09:03:01;1.42;;;1.33;;
48181;SDS011;33976;47.436;18.876;2023-02-18T09:05:30;0.88;;;0.88;;
48181;SDS011;33976;47.436;18.876;2023-02-18T09:07:58;0.43;;;0.43;;
48181;SDS011;33976;47.436;18.876;2023-02-18T09:10:26;0.80;;;0.80;;
48181;SDS011;33976;47.436;18.876;2023-02-18T09:12:55;0.43;;;0.43;;
48181;SDS011;33976;47.436;18.876;2023-02-18T09:15:23;0.40;;;0.40;;
48181;SDS011;33976;47.436;18.876;2023-02-18T09:17:51;0.82;;;0.57;;
48181;SDS011;33976;47.436;18.876;2023-02-18T09:20:20;1.02;;;0.90;;
48181;SDS011;33976;47.436;18.876;2023-02-18T09:22:48;0.28;;;0.28;;
48181;SDS011;33976;47.436;18.876;2023-02-18T09:25:16;0.30;;;0.30;;
48181;SDS011;33976;47.436;18.876;2023-02-18T09:27:44;0.30;;;0.30;;
48181;SDS011;33976;47.436;18.876;2023-02-18T09:30:12;3.08;;;1.05;;
48181;SDS011;33976;47.436;18.876;2023-02-18T09:32:41;0.22;;;0.22;;
48181;SDS011;33976;47.436;18.876;2023-02-18T09:35:09;1.05;;;0.98;;
48181;SDS011;33976;47.436;18.876;2023-02-18T09:37:37;0.50;;;0.50;;
48181;SDS011;33976;47.436;18.876;2023-02-18T09:40:06;0.25;;;0.25;;
48181;SDS011;33976;47.436;18.876;2023-02-18T09:42:35;0.45;;;0.45;;
48181;SDS011;33976;47.436;18.876;2023-02-18T09:45:05;0.50;;;0.50;;
48181;SDS011;33976;47.436;18.876;2023-02-18T09:50:05;5.50;;;0.75;;
48181;SDS011;33976;47.436;18.876;2023-02-18T09:52:38;0.20;;;0.20;;
48181;SDS011;33976;47.436;18.876;2023-02-18T09:55:17;0.30;;;0.30;;
48181;SDS011;33976;47.436;18.876;2023-02-18T09:57:47;0.73;;;0.40;;
48181;SDS011;33976;47.436;18.876;2023-02-18T10:00:22;0.62;;;0.62;;
48181;SDS011;33976;47.436;18.876;2023-02-18T10:02:57;0.23;;;0.23;;
48181;SDS011;33976;47.436;18.876;2023-02-18T10:05:27;1.55;;;0.85;;
48181;SDS011;33976;47.436;18.876;2023-02-18T10:08:01;0.90;;;0.90;;
48181;SDS011;33976;47.436;18.876;2023-02-18T10:10:36;0.65;;;0.65;;
48181;SDS011;33976;47.436;18.876;2023-02-18T10:13:14;0.80;;;0.62;;
48181;SDS011;33976;47.436;18.876;2023-02-18T10:15:48;0.20;;;0.20;;
48181;SDS011;33976;47.436;18.876;2023-02-18T10:18:30;1.42;;;1.15;;
48181;SDS011;33976;47.436;18.876;2023-02-18T10:21:10;1.37;;;0.77;;
48181;SDS011;33976;47.436;18.876;2023-02-18T10:23:42;1.55;;;1.02;;
48181;SDS011;33976;47.436;18.876;2023-02-18T10:26:34;0.65;;;0.65;;
48181;SDS011;33976;47.436;18.876;2023-02-18T10:29:08;0.35;;;0.35;;
48181;SDS011;33976;47.436;18.876;2023-02-18T10:31:50;0.95;;;0.93;;
48181;SDS011;33976;47.436;18.876;2023-02-18T10:34:29;0.40;;;0.40;;
48181;SDS011;33976;47.436;18.876;2023-02-18T10:42:52;2.35;;;2.15;;
48181;SDS011;33976;47.436;18.876;2023-02-18T10:50:57;1.45;;;0.65;;
48181;SDS011;33976;47.436;18.876;2023-02-18T10:53:30;0.32;;;0.32;;
48181;SDS011;33976;47.436;18.876;2023-02-18T10:56:02;0.57;;;0.57;;
48181;SDS011;33976;47.436;18.876;2023-02-18T10:58:32;0.73;;;0.65;;
48181;SDS011;33976;47.436;18.876;2023-02-18T11:01:04;0.68;;;0.68;;
48181;SDS011;33976;47.436;18.876;2023-02-18T11:03:49;1.42;;;1.33;;
48181;SDS011;33976;47.436;18.876;2023-02-18T11:08:56;0.40;;;0.37;;
48181;SDS011;33976;47.436;18.876;2023-02-18T11:11:46;0.30;;;0.30;;
48181;SDS011;33976;47.436;18.876;2023-02-18T11:14:34;0.40;;;0.40;;
48181;SDS011;33976;47.436;18.876;2023-02-18T11:17:18;0.20;;;0.20;;
48181;SDS011;33976;47.436;18.876;2023-02-18T11:19:52;0.32;;;0.32;;
48181;SDS011;33976;47.436;18.876;2023-02-18T11:22:41;0.30;;;0.30;;
48181;SDS011;33976;47.436;18.876;2023-02-18T11:25:20;0.20;;;0.20;;
48181;SDS011;33976;47.436;18.876;2023-02-18T11:27:57;0.20;;;0.20;;
48181;SDS011;33976;47.436;18.876;2023-02-18T11:30:52;0.55;;;0.55;;
48181;SDS011;33976;47.436;18.876;2023-02-18T11:36:09;0.62;;;0.60;;
48181;SDS011;33976;47.436;18.876;2023-02-18T11:38:46;3.03;;;0.37;;
48181;SDS011;33976;47.436;18.876;2023-02-18T11:41:20;0.30;;;0.30;;
48181;SDS011;33976;47.436;18.876;2023-02-18T11:44:00;0.28;;;0.28;;
48181;SDS011;33976;47.436;18.876;2023-02-18T11:46:30;0.60;;;0.60;;
48181;SDS011;33976;47.436;18.876;2023-02-18T11:49:19;0.13;;;0.13;;
48181;SDS011;33976;47.436;18.876;2023-02-18T11:51:49;0.30;;;0.30;;
48181;SDS011;33976;47.436;18.876;2023-02-18T11:59:23;0.28;;;0.28;;
48181;SDS011;33976;47.436;18.876;2023-02-18T12:01:56;0.20;;;0.20;;
48181;SDS011;33976;47.436;18.876;2023-02-18T12:04:39;0.20;;;0.20;;
48181;SDS011;33976;47.436;18.876;2023-02-18T12:10:12;0.22;;;0.22;;
48181;SDS011;33976;47.436;18.876;2023-02-18T12:13:01;0.45;;;0.45;;
48181;SDS011;33976;47.436;18.876;2023-02-18T12:18:24;0.30;;;0.30;;
48181;SDS011;33976;47.436;18.876;2023-02-18T12:21:07;0.57;;;0.57;;
48181;SDS011;33976;47.436;18.876;2023-02-18T12:24:05;0.20;;;0.20;;
48181;SDS011;33976;47.436;18.876;2023-02-18T12:32:29;0.30;;;0.30;;
48181;SDS011;33976;47.436;18.876;2023-02-18T12:35:10;0.35;;;0.35;;
48181;SDS011;33976;47.436;18.876;2023-02-18T12:52:41;0.20;;;0.20;;
48181;SDS011;33976;47.436;18.876;2023-02-18T12:55:42;0.30;;;0.30;;
48181;SDS011;33976;47.436;18.876;2023-02-18T13:04:17;0.20;;;0.20;;
48181;SDS011;33976;47.436;18.876;2023-02-18T13:07:01;0.20;;;0.20;;
48181;SDS011;33976;47.436;18.876;2023-02-18T13:15:12;1.62;;;1.08;;
48181;SDS011;33976;47.436;18.876;2023-02-18T13:18:03;0.30;;;0.30;;
48181;SDS011;33976;47.436;18.876;2023-02-18T13:20:37;3.03;;;1.20;;
48181;SDS011;33976;47.436;18.876;2023-02-18T13:23:19;0.20;;;0.20;;
48181;SDS011;33976;47.436;18.876;2023-02-18T13:25:50;0.50;;;0.50;;
48181;SDS011;33976;47.436;18.876;2023-02-18T13:28:38;0.22;;;0.22;;
48181;SDS011;33976;47.436;18.876;2023-02-18T13:31:18;0.20;;;0.20;;
48181;SDS011;33976;47.436;18.876;2023-02-18T13:36:32;0.20;;;0.20;;
48181;SDS011;33976;47.436;18.876;2023-02-18T13:39:08;1.45;;;0.55;;
48181;SDS011;33976;47.436;18.876;2023-02-18T13:41:39;0.93;;;0.93;;
48181;SDS011;33976;47.436;18.876;2023-02-18T13:46:53;0.50;;;0.50;;
48181;SDS011;33976;47.436;18.876;2023-02-18T13:49:30;1.00;;;0.93;;
48181;SDS011;33976;47.436;18.876;2023-02-18T13:52:00;0.25;;;0.25;;
48181;SDS011;33976;47.436;18.876;2023-02-18T13:54:36;0.30;;;0.30;;
48181;SDS011;33976;47.436;18.876;2023-02-18T13:57:13;1.23;;;0.62;;
48181;SDS011;33976;47.436;18.876;2023-02-18T14:04:48;0.30;;;0.30;;
48181;SDS011;33976;47.436;18.876;2023-02-18T14:12:46;0.28;;;0.28;;
48181;SDS011;33976;47.436;18.876;2023-02-18T14:20:47;0.20;;;0.20;;
48181;SDS011;33976;47.436;18.876;2023-02-18T14:25:54;0.20;;;0.20;;
48181;SDS011;33976;47.436;18.876;2023-02-18T14:31:26;0.20;;;0.20;;
48181;SDS011;33976;47.436;18.876;2023-02-18T14:42:37;1.17;;;0.95;;
48181;SDS011;33976;47.436;18.876;2023-02-18T14:48:22;1.77;;;1.67;;
48181;SDS011;33976;47.436;18.876;2023-02-18T14:51:01;4.75;;;2.28;;
48181;SDS011;33976;47.436;18.876;2023-02-18T14:53:29;3.42;;;3.08;;
48181;SDS011;33976;47.436;18.876;2023-02-18T14:55:58;6.10;;;3.83;;
48181;SDS011;33976;47.436;18.876;2023-02-18T14:58:32;3.55;;;1.95;;
48181;SDS011;33976;47.436;18.876;2023-02-18T15:01:12;3.45;;;3.15;;
48181;SDS011;33976;47.436;18.876;2023-02-18T15:03:45;3.22;;;2.92;;
48181;SDS011;33976;47.436;18.876;2023-02-18T15:09:12;7.53;;;3.20;;
48181;SDS011;33976;47.436;18.876;2023-02-18T15:11:48;3.87;;;3.03;;
48181;SDS011;33976;47.436;18.876;2023-02-18T15:14:19;3.80;;;3.33;;
48181;SDS011;33976;47.436;18.876;2023-02-18T15:16:50;3.55;;;3.22;;
48181;SDS011;33976;47.436;18.876;2023-02-18T15:19:21;2.62;;;2.47;;
48181;SDS011;33976;47.436;18.876;2023-02-18T15:21:55;3.28;;;3.03;;
48181;SDS011;33976;47.436;18.876;2023-02-18T15:24:31;3.75;;;3.05;;
48181;SDS011;33976;47.436;18.876;2023-02-18T15:27:02;5.12;;;2.97;;
48181;SDS011;33976;47.436;18.876;2023-02-18T15:29:39;2.72;;;1.80;;
48181;SDS011;33976;47.436;18.876;2023-02-18T15:34:53;3.08;;;2.85;;
48181;SDS011;33976;47.436;18.876;2023-02-18T15:37:23;5.93;;;2.95;;
48181;SDS011;33976;47.436;18.876;2023-02-18T15:39:52;5.10;;;4.05;;
48181;SDS011;33976;47.436;18.876;2023-02-18T15:47:52;4.15;;;3.85;;
48181;SDS011;33976;47.436;18.876;2023-02-18T15:50:26;5.18;;;4.40;;
48181;SDS011;33976;47.436;18.876;2023-02-18T15:52:57;3.35;;;2.30;;
48181;SDS011;33976;47.436;18.876;2023-02-18T15:55:31;11.45;;;4.85;;
48181;SDS011;33976;47.436;18.876;2023-02-18T15:58:05;3.83;;;3.22;;
48181;SDS011;33976;47.436;18.876;2023-02-18T16:00:40;3.08;;;2.83;;
48181;SDS011;33976;47.436;18.876;2023-02-18T16:03:18;2.45;;;2.28;;
48181;SDS011;33976;47.436;18.876;2023-02-18T16:06:08;8.18;;;3.87;;
48181;SDS011;33976;47.436;18.876;2023-02-18T16:08:39;4.22;;;3.92;;
48181;SDS011;33976;47.436;18.876;2023-02-18T16:11:09;4.05;;;3.12;;
48181;SDS011;33976;47.436;18.876;2023-02-18T16:13:46;3.65;;;3.33;;
48181;SDS011;33976;47.436;18.876;2023-02-18T16:16:20;2.70;;;2.50;;
48181;SDS011;33976;47.436;18.876;2023-02-18T16:18:50;2.35;;;2.20;;
48181;SDS011;33976;47.436;18.876;2023-02-18T16:23:51;5.60;;;4.18;;
48181;SDS011;33976;47.436;18.876;2023-02-18T16:29:33;4.07;;;3.42;;
48181;SDS011;33976;47.436;18.876;2023-02-18T16:31:52;3.47;;;2.62;;
48181;SDS011;33976;47.436;18.876;2023-02-18T16:34:21;4.30;;;4.00;;
48181;SDS011;33976;47.436;18.876;2023-02-18T16:36:49;4.53;;;3.60;;
48181;SDS011;33976;47.436;18.876;2023-02-18T16:39:36;5.25;;;4.10;;
48181;SDS011;33976;47.436;18.876;2023-02-18T16:42:11;4.80;;;3.15;;
48181;SDS011;33976;47.436;18.876;2023-02-18T16:44:40;1.33;;;1.30;;
48181;SDS011;33976;47.436;18.876;2023-02-18T16:47:09;4.53;;;4.12;;
48181;SDS011;33976;47.436;18.876;2023-02-18T16:49:47;2.72;;;2.53;;
48181;SDS011;33976;47.436;18.876;2023-02-18T16:52:16;3.10;;;2.10;;
48181;SDS011;33976;47.436;18.876;2023-02-18T16:54:46;6.82;;;1.77;;
48181;SDS011;33976;47.436;18.876;2023-02-18T16:57:15;3.35;;;3.10;;
48181;SDS011;33976;47.436;18.876;2023-02-18T16:59:43;1.52;;;1.45;;
48181;SDS011;33976;47.436;18.876;2023-02-18T17:02:17;4.12;;;2.90;;
48181;SDS011;33976;47.436;18.876;2023-02-18T17:04:46;3.22;;;2.35;;
48181;SDS011;33976;47.436;18.876;2023-02-18T17:07:15;4.32;;;3.95;;
48181;SDS011;33976;47.436;18.876;2023-02-18T17:09:43;5.62;;;5.18;;
48181;SDS011;33976;47.436;18.876;2023-02-18T17:12:11;4.87;;;4.47;;
48181;SDS011;33976;47.436;18.876;2023-02-18T17:14:42;2.60;;;2.40;;
48181;SDS011;33976;47.436;18.876;2023-02-18T17:17:10;2.83;;;2.65;;
48181;SDS011;33976;47.436;18.876;2023-02-18T17:19:40;3.17;;;2.95;;
48181;SDS011;33976;47.436;18.876;2023-02-18T17:22:08;3.53;;;3.25;;
48181;SDS011;33976;47.436;18.876;2023-02-18T17:24:38;3.85;;;2.40;;
48181;SDS011;33976;47.436;18.876;2023-02-18T17:27:07;4.05;;;3.65;;
48181;SDS011;33976;47.436;18.876;2023-02-18T17:29:37;3.72;;;3.42;;
48181;SDS011;33976;47.436;18.876;2023-02-18T17:32:05;4.32;;;3.12;;
48181;SDS011;33976;47.436;18.876;2023-02-18T17:34:34;4.53;;;3.83;;
48181;SDS011;33976;47.436;18.876;2023-02-18T17:37:04;3.87;;;3.12;;
48181;SDS011;33976;47.436;18.876;2023-02-18T17:39:33;4.30;;;4.00;;
48181;SDS011;33976;47.436;18.876;2023-02-18T17:42:00;2.62;;;2.25;;
48181;SDS011;33976;47.436;18.876;2023-02-18T17:44:29;3.60;;;2.75;;